Terminal Aerodrome Forecast
Issued by NWS

Home | Current Version | Previous Version | Text Only | Print | Product List | Glossary On
Versions: 1 2 3 4 5 6 7 8 9 10 11 12 13 14 15 16
000
FTUS42 TJSJ 231100
TAFJSJ
TAF
TJSJ 231138Z 2312/2412 07004KT P6SM VCSH FEW025 SCT050 BKN080
     FM231400 08011KT P6SM FEW030 SCT080
     FM231750 07014KT P6SM VCSH SCT024 SCT040
     FM232330 VRB05KT P6SM FEW030 SCT060=

USA.gov is the U.S. government's official web portal to all federal, state and local government web resources and services.